createdAt,value
2023-05-03T00:01:01.204Z,2.17
2023-05-03T00:03:07.129Z,2.30
2023-05-03T00:05:15.825Z,3.70
2023-05-03T00:07:19.353Z,3.40
2023-05-03T00:09:22.687Z,2.90
2023-05-03T00:11:26.552Z,4.20
2023-05-03T00:13:30.073Z,2.70
2023-05-03T00:15:33.465Z,3.27
2023-05-03T00:17:37.516Z,2.40
2023-05-03T00:19:41.157Z,3.10
2023-05-03T00:21:46.260Z,2.90
2023-05-03T00:23:49.881Z,3.50
2023-05-03T00:25:56.961Z,2.47
2023-05-03T00:28:00.560Z,4.10
2023-05-03T00:30:04.336Z,4.13
2023-05-03T00:32:10.846Z,3.63
2023-05-03T00:34:14.656Z,2.50
2023-05-03T00:36:18.223Z,2.73
2023-05-03T00:38:23.027Z,2.07
2023-05-03T00:40:26.974Z,2.20
2023-05-03T00:42:30.465Z,3.10
2023-05-03T00:44:34.020Z,2.73
2023-05-03T00:46:37.580Z,2.90
2023-05-03T00:48:41.193Z,2.43
2023-05-03T00:50:45.703Z,2.40
2023-05-03T00:52:49.481Z,2.77
2023-05-03T00:54:54.582Z,2.50
2023-05-03T00:56:58.798Z,2.37
2023-05-03T00:59:02.920Z,4.10
2023-05-03T01:01:06.846Z,3.43
2023-05-03T01:03:10.840Z,2.80
2023-05-03T01:05:14.436Z,3.47
2023-05-03T01:07:30.811Z,3.47
2023-05-03T01:09:40.865Z,4.30
2023-05-03T01:11:54.917Z,4.10
2023-05-03T01:14:07.410Z,1.87
2023-05-03T01:16:18.236Z,2.23
2023-05-03T01:18:26.216Z,2.47
2023-05-03T01:20:32.358Z,2.00
2023-05-03T01:22:44.450Z,1.73
2023-05-03T01:24:52.012Z,2.20
2023-05-03T01:26:57.661Z,2.53
2023-05-03T01:29:01.561Z,4.47
2023-05-03T01:31:06.304Z,2.70
2023-05-03T01:33:18.330Z,2.13
2023-05-03T01:35:28.857Z,2.43
2023-05-03T01:37:33.588Z,2.80
2023-05-03T01:39:41.970Z,2.33
2023-05-03T01:41:46.217Z,2.33
2023-05-03T01:43:52.444Z,2.73
2023-05-03T01:45:56.543Z,4.03
2023-05-03T01:48:00.742Z,2.17
2023-05-03T01:50:04.534Z,3.40
2023-05-03T01:52:08.821Z,3.33
2023-05-03T01:54:12.412Z,2.40
2023-05-03T01:56:16.329Z,2.37
2023-05-03T01:58:19.702Z,5.27
2023-05-03T02:00:25.256Z,4.10
2023-05-03T02:02:28.989Z,4.00
2023-05-03T02:04:32.543Z,2.20
2023-05-03T02:06:36.350Z,3.53
2023-05-03T02:08:39.804Z,2.13
2023-05-03T02:10:45.609Z,7.10
2023-05-03T02:12:49.290Z,2.77
2023-05-03T02:14:53.099Z,4.03
2023-05-03T02:16:58.011Z,2.60
2023-05-03T02:19:01.583Z,2.33
2023-05-03T02:21:06.921Z,4.13
2023-05-03T02:23:10.414Z,2.43
2023-05-03T02:25:13.923Z,3.40
2023-05-03T02:27:17.429Z,3.00
2023-05-03T02:29:21.004Z,2.90
2023-05-03T02:31:24.753Z,2.50
2023-05-03T02:33:29.653Z,5.30
2023-05-03T02:35:33.229Z,2.47
2023-05-03T02:37:36.646Z,4.13
2023-05-03T02:39:40.212Z,3.80
2023-05-03T02:41:43.857Z,3.00
2023-05-03T02:43:47.439Z,3.07
2023-05-03T02:45:50.966Z,2.40
2023-05-03T02:47:54.436Z,2.27
2023-05-03T02:49:59.427Z,3.47
2023-05-03T02:52:02.957Z,4.70
2023-05-03T02:54:06.552Z,1.90
2023-05-03T02:56:11.034Z,3.40
2023-05-03T02:58:15.252Z,10.73
2023-05-03T03:00:18.947Z,3.10
2023-05-03T03:02:22.990Z,2.13
2023-05-03T03:04:27.572Z,3.13
2023-05-03T03:06:32.820Z,5.70
2023-05-03T03:08:38.044Z,3.10
2023-05-03T03:10:41.551Z,1.70
2023-05-03T03:12:45.079Z,1.83
2023-05-03T03:14:48.779Z,3.00
2023-05-03T03:16:53.478Z,2.40
2023-05-03T03:18:57.182Z,2.40
2023-05-03T03:21:00.778Z,2.23
2023-05-03T03:23:05.711Z,2.50
2023-05-03T03:25:10.416Z,4.57
2023-05-03T03:27:13.969Z,3.40
2023-05-03T03:29:17.507Z,3.30
2023-05-03T03:31:22.887Z,8.07
2023-05-03T03:33:26.872Z,9.97
2023-05-03T03:35:30.783Z,16.87
2023-05-03T03:37:34.255Z,30.43
2023-05-03T03:39:40.217Z,36.10
2023-05-03T03:41:43.925Z,33.00
2023-05-03T03:43:47.654Z,20.03
2023-05-03T03:45:51.055Z,9.10
2023-05-03T03:47:54.628Z,5.20
2023-05-03T03:49:58.088Z,8.80
2023-05-03T03:52:01.537Z,8.53
2023-05-03T03:54:06.163Z,7.70
2023-05-03T03:56:11.237Z,7.37
2023-05-03T03:58:14.637Z,7.50
2023-05-03T04:00:18.541Z,2.13
2023-05-03T04:02:22.698Z,2.70
2023-05-03T04:04:26.720Z,4.87
2023-05-03T04:06:30.500Z,1.87
2023-05-03T04:08:34.081Z,4.60
2023-05-03T04:10:37.656Z,2.63
2023-05-03T04:12:42.573Z,1.60
2023-05-03T04:14:47.199Z,4.87
2023-05-03T04:16:50.790Z,1.93
2023-05-03T04:18:54.309Z,3.63
2023-05-03T04:20:57.884Z,2.00
2023-05-03T04:23:01.582Z,4.10
2023-05-03T04:25:05.284Z,2.87
2023-05-03T04:27:11.568Z,2.13
2023-05-03T04:29:16.999Z,2.43
2023-05-03T04:31:21.470Z,1.90
2023-05-03T04:33:24.932Z,3.30
2023-05-03T04:35:28.958Z,2.47
2023-05-03T04:37:32.394Z,2.43
2023-05-03T04:39:35.957Z,1.90
2023-05-03T04:41:39.706Z,5.47
2023-05-03T04:43:43.185Z,2.37
2023-05-03T04:45:48.297Z,2.60
2023-05-03T04:47:51.843Z,2.50
2023-05-03T04:49:55.331Z,2.40
2023-05-03T04:51:59.242Z,6.20
2023-05-03T04:54:03.421Z,1.63
2023-05-03T04:56:07.869Z,6.73
2023-05-03T04:58:11.444Z,3.37
2023-05-03T05:00:16.625Z,1.70
2023-05-03T05:02:21.804Z,1.77
2023-05-03T05:04:25.511Z,1.70
2023-05-03T05:06:29.262Z,2.00
2023-05-03T05:08:32.799Z,2.40
2023-05-03T05:10:40.002Z,2.50
2023-05-03T05:12:43.588Z,3.33
2023-05-03T05:14:47.003Z,1.60
2023-05-03T05:16:50.519Z,3.10
2023-05-03T05:18:55.500Z,2.87
2023-05-03T05:20:59.232Z,2.50
2023-05-03T05:23:02.701Z,4.40
2023-05-03T05:25:07.592Z,2.40
2023-05-03T05:27:11.122Z,2.10
2023-05-03T05:29:14.613Z,2.03
2023-05-03T05:31:18.506Z,2.43
2023-05-03T05:33:22.898Z,2.67
2023-05-03T05:35:28.981Z,2.60
2023-05-03T05:37:35.461Z,3.07
2023-05-03T05:39:39.360Z,2.47
2023-05-03T05:41:43.190Z,2.50
2023-05-03T05:43:46.902Z,4.83
2023-05-03T05:45:50.521Z,2.80
2023-05-03T05:47:54.246Z,6.57
2023-05-03T05:49:57.782Z,2.70
2023-05-03T05:52:02.886Z,3.80
2023-05-03T05:54:06.615Z,2.90
2023-05-03T05:56:11.530Z,2.10
2023-05-03T05:58:15.069Z,1.70
2023-05-03T06:00:19.129Z,2.43
2023-05-03T06:02:24.896Z,2.90
2023-05-03T06:04:29.278Z,2.43
2023-05-03T06:06:32.792Z,2.40
2023-05-03T06:08:37.918Z,2.07
2023-05-03T06:10:41.406Z,3.43
2023-05-03T06:12:44.923Z,1.90
2023-05-03T06:15:01.396Z,2.90
2023-05-03T06:17:05.763Z,8.80
2023-05-03T06:19:09.256Z,3.20
2023-05-03T06:21:12.541Z,3.43
2023-05-03T06:23:16.045Z,3.33
2023-05-03T06:25:21.472Z,3.13
2023-05-03T06:27:25.489Z,2.63
2023-05-03T06:29:29.597Z,2.37
2023-05-03T06:31:33.051Z,2.43
2023-05-03T06:33:36.903Z,3.17
2023-05-03T06:35:41.206Z,2.87
2023-05-03T06:37:44.678Z,3.53
2023-05-03T06:39:50.094Z,3.20
2023-05-03T06:41:54.924Z,2.43
2023-05-03T06:43:58.521Z,2.53
2023-05-03T06:46:01.940Z,4.73
2023-05-03T06:48:06.892Z,3.13
2023-05-03T06:50:11.017Z,3.00
2023-05-03T06:52:15.060Z,4.20
2023-05-03T06:54:20.252Z,3.30
2023-05-03T06:56:23.997Z,3.10
2023-05-03T06:58:29.682Z,3.50
2023-05-03T07:00:33.645Z,5.60
2023-05-03T07:02:37.462Z,5.60
2023-05-03T07:04:41.046Z,3.10
2023-05-03T07:06:55.849Z,5.33
2023-05-03T07:09:00.340Z,7.10
2023-05-03T07:11:04.234Z,4.80
2023-05-03T07:13:07.988Z,5.80
2023-05-03T07:15:13.256Z,3.90
2023-05-03T07:17:16.720Z,4.90
2023-05-03T07:19:20.359Z,12.37
2023-05-03T07:21:23.963Z,4.57
2023-05-03T07:23:27.348Z,7.90
2023-05-03T07:25:31.810Z,6.00
2023-05-03T07:27:35.361Z,4.90
2023-05-03T07:29:39.156Z,7.73
2023-05-03T07:31:44.949Z,4.90
2023-05-03T07:33:48.664Z,6.97
2023-05-03T07:35:52.408Z,4.50
2023-05-03T07:37:56.932Z,5.07
2023-05-03T07:40:00.663Z,4.93
2023-05-03T07:42:04.121Z,4.07
2023-05-03T07:44:08.152Z,7.00
2023-05-03T07:46:11.684Z,4.07
2023-05-03T07:48:17.027Z,5.07
2023-05-03T07:50:20.683Z,5.13
2023-05-03T07:52:24.189Z,4.03
2023-05-03T07:54:27.987Z,4.50
2023-05-03T07:56:31.606Z,5.00
2023-05-03T07:58:40.068Z,4.43
2023-05-03T08:00:44.172Z,4.20
2023-05-03T08:02:48.215Z,3.33
2023-05-03T08:04:54.947Z,4.27
2023-05-03T08:07:01.427Z,4.97
2023-05-03T08:09:05.329Z,4.23
2023-05-03T08:11:08.773Z,4.40
2023-05-03T08:13:12.245Z,3.60
2023-05-03T08:15:15.605Z,4.00
2023-05-03T08:17:20.095Z,3.57
2023-05-03T08:19:23.519Z,6.50
2023-05-03T08:21:28.798Z,3.57
2023-05-03T08:23:32.296Z,3.60
2023-05-03T08:25:37.393Z,3.57
2023-05-03T08:27:41.085Z,4.10
2023-05-03T08:29:44.498Z,3.60
2023-05-03T08:31:48.104Z,4.90
2023-05-03T08:33:51.823Z,4.43
2023-05-03T08:35:55.711Z,4.20
2023-05-03T08:38:00.520Z,4.00
2023-05-03T08:40:05.937Z,3.97
2023-05-03T08:42:10.500Z,9.13
2023-05-03T08:44:21.757Z,3.93
2023-05-03T08:46:26.960Z,3.83
2023-05-03T08:48:31.177Z,3.97
2023-05-03T08:50:42.150Z,5.27
2023-05-03T08:52:45.779Z,4.30
2023-05-03T08:54:50.719Z,6.03
2023-05-03T08:56:54.300Z,4.10
2023-05-03T08:59:01.488Z,4.10
2023-05-03T09:01:08.656Z,4.80
2023-05-03T09:03:12.739Z,3.47
2023-05-03T09:05:39.131Z,7.40
2023-05-03T09:07:44.126Z,4.73
2023-05-03T09:09:47.740Z,4.90
2023-05-03T09:11:52.879Z,4.20
2023-05-03T09:14:08.737Z,4.70
2023-05-03T09:16:12.397Z,4.57
2023-05-03T09:18:17.734Z,6.03
2023-05-03T09:20:36.773Z,5.00
2023-05-03T09:22:52.405Z,4.27
2023-05-03T09:24:59.997Z,4.17
2023-05-03T09:27:21.464Z,6.47
2023-05-03T09:29:32.438Z,5.13
2023-05-03T09:31:37.199Z,4.03
2023-05-03T09:33:40.701Z,4.80
2023-05-03T09:35:57.925Z,7.13
2023-05-03T09:38:02.265Z,3.93
2023-05-03T09:40:11.769Z,6.47
2023-05-03T09:42:19.175Z,5.80
2023-05-03T09:44:41.413Z,6.50
2023-05-03T09:47:05.598Z,3.97
2023-05-03T09:49:09.267Z,3.47
2023-05-03T09:51:13.845Z,4.10
2023-05-03T09:53:19.348Z,4.30
2023-05-03T09:55:23.367Z,4.63
2023-05-03T09:57:29.082Z,4.33
2023-05-03T09:59:33.160Z,6.23
2023-05-03T10:01:37.664Z,4.97
2023-05-03T10:03:44.108Z,6.17
2023-05-03T10:05:49.248Z,4.87
2023-05-03T10:07:56.813Z,3.60
2023-05-03T10:10:00.318Z,6.10
2023-05-03T10:12:08.533Z,7.00
2023-05-03T10:14:13.645Z,5.07
2023-05-03T10:16:22.618Z,4.90
2023-05-03T10:18:30.596Z,4.80
2023-05-03T10:20:39.379Z,4.30
2023-05-03T10:23:11.432Z,3.83
2023-05-03T10:25:16.053Z,4.20
2023-05-03T10:27:19.792Z,5.57
2023-05-03T10:29:52.484Z,4.30
2023-05-03T10:31:56.261Z,4.53
2023-05-03T10:33:59.942Z,8.00
2023-05-03T10:36:07.876Z,5.40
2023-05-03T10:38:15.936Z,4.40
2023-05-03T10:40:23.434Z,3.10
2023-05-03T10:42:27.541Z,4.40
2023-05-03T10:44:39.656Z,4.13
2023-05-03T10:46:46.085Z,3.97
2023-05-03T10:49:19.653Z,4.53
2023-05-03T10:51:37.412Z,3.90
2023-05-03T10:53:43.623Z,5.47
2023-05-03T10:56:03.459Z,4.47
2023-05-03T10:58:11.986Z,5.10
2023-05-03T11:00:18.780Z,3.83
2023-05-03T11:02:28.872Z,3.20
2023-05-03T11:04:40.945Z,4.63
2023-05-03T11:06:46.514Z,4.33
2023-05-03T11:08:50.176Z,4.20
2023-05-03T11:10:59.920Z,3.90
2023-05-03T11:13:03.464Z,3.17
2023-05-03T11:15:07.670Z,4.40
2023-05-03T11:17:11.410Z,6.30
2023-05-03T11:19:16.921Z,4.43
2023-05-03T11:21:21.326Z,3.80
2023-05-03T11:23:27.022Z,4.83
2023-05-03T11:25:30.570Z,5.37
2023-05-03T11:27:33.974Z,3.77
2023-05-03T11:29:38.027Z,4.90
2023-05-03T11:31:43.932Z,8.30
2023-05-03T11:33:48.128Z,5.43
2023-05-03T11:35:57.080Z,4.97
2023-05-03T11:38:00.771Z,4.87
2023-05-03T11:40:05.102Z,3.93
2023-05-03T11:42:08.804Z,4.60
2023-05-03T11:44:17.587Z,6.37
2023-05-03T11:46:24.407Z,4.50
2023-05-03T11:48:28.604Z,4.87
2023-05-03T11:50:51.477Z,3.97
2023-05-03T11:52:58.493Z,3.67
2023-05-03T11:55:03.075Z,4.47
2023-05-03T11:57:15.027Z,6.20
2023-05-03T11:59:18.748Z,5.40
2023-05-03T12:01:23.579Z,5.33
2023-05-03T12:03:31.671Z,4.90
2023-05-03T12:05:36.427Z,5.57
2023-05-03T12:07:40.785Z,5.27
2023-05-03T12:09:52.578Z,5.70
2023-05-03T12:12:05.927Z,9.13
2023-05-03T12:14:10.793Z,8.23
2023-05-03T12:16:19.438Z,8.50
2023-05-03T12:18:23.461Z,7.60
2023-05-03T12:22:37.295Z,8.20
2023-05-03T12:24:42.617Z,8.60
2023-05-03T12:26:51.376Z,8.93
2023-05-03T12:28:57.319Z,7.63
2023-05-03T12:31:01.174Z,7.30
2023-05-03T12:33:05.216Z,7.00
2023-05-03T12:35:13.943Z,7.00
2023-05-03T12:37:20.155Z,7.07
2023-05-03T12:39:27.575Z,7.50
2023-05-03T12:43:41.338Z,7.83
2023-05-03T12:45:53.106Z,6.30
2023-05-03T12:48:07.912Z,6.87
2023-05-03T12:50:12.929Z,6.87
2023-05-03T12:54:27.172Z,6.03
2023-05-03T12:56:33.288Z,6.67
2023-05-03T12:59:01.624Z,10.70
2023-05-03T13:01:47.305Z,6.80
2023-05-03T13:03:32.385Z,6.27
2023-05-03T13:05:37.664Z,7.10
2023-05-03T13:07:43.506Z,7.57
2023-05-03T13:11:54.992Z,6.37
2023-05-03T13:14:00.452Z,5.63
2023-05-03T13:16:04.261Z,6.63
2023-05-03T13:18:08.357Z,11.73
2023-05-03T13:20:12.706Z,7.83
2023-05-03T13:22:17.026Z,6.77
2023-05-03T13:24:20.366Z,8.97
2023-05-03T13:26:23.792Z,7.23
2023-05-03T13:28:27.770Z,7.00
2023-05-03T13:30:32.743Z,7.23
2023-05-03T13:32:36.242Z,6.80
2023-05-03T13:34:39.678Z,8.83
2023-05-03T13:36:43.038Z,7.70
2023-05-03T13:38:46.776Z,8.50
2023-05-03T13:40:50.420Z,8.40
2023-05-03T13:42:53.796Z,8.33
2023-05-03T13:44:57.304Z,7.40
2023-05-03T13:47:02.633Z,7.50
2023-05-03T13:49:07.356Z,6.67
2023-05-03T13:51:12.402Z,10.60
2023-05-03T13:53:15.799Z,7.80
2023-05-03T13:55:19.329Z,7.90
2023-05-03T13:57:23.216Z,7.23
2023-05-03T13:59:26.596Z,9.93
2023-05-03T14:01:30.562Z,9.03
2023-05-03T14:03:36.285Z,10.37
2023-05-03T14:05:40.521Z,10.43
2023-05-03T14:07:44.144Z,8.73
2023-05-03T14:09:47.694Z,10.07
2023-05-03T14:11:51.646Z,10.70
2023-05-03T14:13:57.550Z,10.23
2023-05-03T14:16:02.039Z,11.03
2023-05-03T14:18:06.184Z,10.43
2023-05-03T14:20:12.603Z,10.90
2023-05-03T14:22:16.202Z,11.10
2023-05-03T14:24:20.297Z,11.07
2023-05-03T14:26:24.565Z,10.70
2023-05-03T14:28:28.154Z,10.83
2023-05-03T14:30:32.114Z,11.03
2023-05-03T14:32:37.525Z,10.57
2023-05-03T14:34:43.554Z,10.60
2023-05-03T14:36:52.119Z,11.17
2023-05-03T14:38:56.228Z,11.60
2023-05-03T14:41:00.052Z,11.27
2023-05-03T14:43:03.653Z,11.40
2023-05-03T14:45:10.906Z,11.40
2023-05-03T14:47:15.876Z,11.63
2023-05-03T14:49:20.387Z,10.90
2023-05-03T14:51:23.946Z,11.57
2023-05-03T14:53:29.007Z,11.40
2023-05-03T14:55:32.534Z,13.70
2023-05-03T14:57:36.617Z,11.30
2023-05-03T14:59:40.406Z,13.90
2023-05-03T15:01:44.006Z,16.73
2023-05-03T15:03:47.517Z,13.23
2023-05-03T15:05:51.891Z,11.83
2023-05-03T15:07:55.447Z,10.83
2023-05-03T15:10:03.120Z,10.60
2023-05-03T15:12:07.557Z,11.90
2023-05-03T15:14:11.717Z,11.30
2023-05-03T15:16:15.326Z,10.20
2023-05-03T15:18:20.421Z,10.13
2023-05-03T15:20:24.129Z,11.20
2023-05-03T15:22:27.806Z,10.83
2023-05-03T15:24:32.007Z,17.77
2023-05-03T15:26:37.139Z,10.80
2023-05-03T15:28:41.931Z,11.57
2023-05-03T15:30:45.391Z,10.83
2023-05-03T15:32:50.082Z,15.33
2023-05-03T15:34:53.539Z,11.50
2023-05-03T15:36:57.266Z,13.00
2023-05-03T15:39:00.991Z,18.60
2023-05-03T15:41:04.719Z,12.87
2023-05-03T15:43:09.644Z,11.50
2023-05-03T15:45:14.140Z,14.27
2023-05-03T15:47:17.598Z,11.57
2023-05-03T15:49:21.156Z,13.23
2023-05-03T15:51:24.914Z,12.43
2023-05-03T15:53:28.959Z,12.07
2023-05-03T15:55:32.576Z,11.73
2023-05-03T15:57:36.181Z,11.73
2023-05-03T15:59:41.389Z,12.50
2023-05-03T16:01:45.247Z,8.83
2023-05-03T16:03:49.197Z,9.53
2023-05-03T16:05:52.611Z,12.37
2023-05-03T16:07:56.293Z,17.40
2023-05-03T16:09:59.948Z,10.60
2023-05-03T16:12:03.430Z,11.60
2023-05-03T16:14:09.673Z,11.40
2023-05-03T16:16:14.697Z,9.70
2023-05-03T16:18:18.279Z,11.77
2023-05-03T16:20:21.996Z,10.67
2023-05-03T16:22:25.621Z,11.80
2023-05-03T16:24:28.944Z,14.50
2023-05-03T16:26:34.553Z,11.93
2023-05-03T16:28:38.435Z,10.43
2023-05-03T16:30:42.705Z,11.13
2023-05-03T16:32:48.349Z,12.23
2023-05-03T16:34:53.142Z,10.20
2023-05-03T16:36:56.525Z,11.10
2023-05-03T16:39:00.070Z,11.43
2023-05-03T16:41:03.717Z,9.87
2023-05-03T16:43:07.073Z,8.77
2023-05-03T16:45:11.424Z,9.90
2023-05-03T16:47:14.808Z,9.60
2023-05-03T16:49:19.687Z,9.87
2023-05-03T16:51:23.235Z,12.10
2023-05-03T16:53:26.761Z,12.03
2023-05-03T16:55:30.663Z,12.67
2023-05-03T16:57:34.038Z,8.57
2023-05-03T16:59:37.581Z,9.77
2023-05-03T17:01:41.105Z,7.97
2023-05-03T17:03:44.702Z,8.73
2023-05-03T17:05:49.803Z,7.47
2023-05-03T17:07:53.444Z,8.80
2023-05-03T17:09:57.401Z,4.90
2023-05-03T17:12:03.412Z,4.40
2023-05-03T17:14:07.198Z,3.97
2023-05-03T17:16:15.277Z,4.60
2023-05-03T17:18:18.757Z,5.77
2023-05-03T17:20:22.595Z,3.50
2023-05-03T17:22:28.143Z,3.50
2023-05-03T17:24:33.795Z,4.60
2023-05-03T17:26:37.219Z,3.77
2023-05-03T17:28:41.644Z,4.00
2023-05-03T17:30:45.067Z,3.23
2023-05-03T17:32:48.536Z,3.73
2023-05-03T17:34:52.146Z,3.47
2023-05-03T17:36:56.388Z,4.07
2023-05-03T17:39:01.426Z,4.17
2023-05-03T17:41:06.170Z,5.07
2023-05-03T17:43:09.752Z,3.23
2023-05-03T17:45:14.053Z,4.77
2023-05-03T17:47:17.542Z,4.67
2023-05-03T17:49:21.290Z,3.93
2023-05-03T17:51:24.751Z,3.23
2023-05-03T17:53:28.251Z,3.30
2023-05-03T17:55:36.260Z,4.07
2023-05-03T17:57:40.308Z,3.57
2023-05-03T17:59:44.046Z,6.00
2023-05-03T18:01:49.312Z,3.67
2023-05-03T18:03:52.836Z,4.17
2023-05-03T18:05:56.803Z,4.20
2023-05-03T18:08:00.173Z,4.70
2023-05-03T18:10:03.915Z,5.20
2023-05-03T18:12:09.474Z,3.73
2023-05-03T18:14:13.051Z,4.57
2023-05-03T18:16:17.238Z,3.63
2023-05-03T18:18:21.053Z,4.20
2023-05-03T18:20:24.430Z,3.57
2023-05-03T18:22:27.958Z,6.63
2023-05-03T18:24:32.442Z,5.43
2023-05-03T18:26:35.936Z,4.50
2023-05-03T18:28:40.988Z,10.53
2023-05-03T18:30:44.590Z,9.23
2023-05-03T18:32:48.482Z,7.37
2023-05-03T18:34:52.168Z,8.80
2023-05-03T18:36:55.592Z,13.37
2023-05-03T18:38:59.758Z,10.57
2023-05-03T18:41:04.793Z,7.60
2023-05-03T18:43:08.610Z,10.67
2023-05-03T18:45:15.476Z,9.50
2023-05-03T18:47:21.069Z,7.17
2023-05-03T18:49:25.241Z,6.73
2023-05-03T18:51:29.167Z,6.80
2023-05-03T18:53:34.377Z,9.60
2023-05-03T18:55:37.970Z,8.13
2023-05-03T18:57:41.809Z,6.60
2023-05-03T18:59:56.501Z,6.03
2023-05-03T19:02:06.783Z,5.47
2023-05-03T19:04:10.442Z,6.20
2023-05-03T19:06:14.435Z,7.03
2023-05-03T19:08:18.121Z,5.77
2023-05-03T19:10:21.626Z,8.73
2023-05-03T19:12:25.525Z,5.73
2023-05-03T19:14:28.993Z,4.70
2023-05-03T19:16:33.431Z,7.80
2023-05-03T19:18:41.635Z,4.33
2023-05-03T19:20:45.102Z,6.03
2023-05-03T19:22:49.000Z,7.20
2023-05-03T19:24:52.539Z,5.87
2023-05-03T19:26:56.202Z,5.20
2023-05-03T19:28:59.635Z,9.80
2023-05-03T19:31:04.773Z,5.03
2023-05-03T19:33:08.468Z,6.50
2023-05-03T19:35:13.561Z,6.47
2023-05-03T19:37:18.182Z,5.73
2023-05-03T19:39:21.781Z,4.97
2023-05-03T19:41:25.297Z,4.87
2023-05-03T19:43:28.660Z,4.10
2023-05-03T19:45:32.355Z,5.07
2023-05-03T19:47:35.690Z,6.87
2023-05-03T19:49:39.434Z,6.27
2023-05-03T19:51:44.469Z,14.43
2023-05-03T19:53:49.027Z,5.80
2023-05-03T19:56:00.153Z,5.43
2023-05-03T19:58:04.185Z,5.43
2023-05-03T20:00:09.953Z,6.07
2023-05-03T20:02:13.415Z,9.53
2023-05-03T20:04:17.183Z,5.47
2023-05-03T20:06:21.259Z,7.60
2023-05-03T20:08:26.452Z,7.30
2023-05-03T20:10:35.590Z,10.10
2023-05-03T20:12:39.041Z,7.30
2023-05-03T20:14:42.577Z,8.03
2023-05-03T20:16:46.118Z,7.43
2023-05-03T20:18:49.825Z,7.47
2023-05-03T20:20:53.259Z,8.20
2023-05-03T20:22:56.756Z,6.87
2023-05-03T20:25:02.015Z,7.03
2023-05-03T20:27:05.411Z,5.93
2023-05-03T20:29:08.875Z,8.30
2023-05-03T20:31:12.479Z,5.63
2023-05-03T20:33:16.021Z,4.70
2023-05-03T20:35:19.735Z,5.60
2023-05-03T20:37:23.363Z,9.33
2023-05-03T20:39:27.192Z,5.60
2023-05-03T20:41:32.716Z,6.80
2023-05-03T20:43:36.234Z,9.50
2023-05-03T20:45:39.743Z,8.77
2023-05-03T20:47:43.147Z,7.00
2023-05-03T20:49:46.695Z,10.23
2023-05-03T20:51:51.051Z,9.83
2023-05-03T20:53:54.792Z,7.70
2023-05-03T20:56:00.171Z,9.13
2023-05-03T20:58:05.232Z,9.80
2023-05-03T21:00:11.567Z,8.60
2023-05-03T21:02:14.993Z,7.60
2023-05-03T21:04:18.658Z,8.27
2023-05-03T21:06:22.345Z,7.27
2023-05-03T21:08:26.184Z,13.57
2023-05-03T21:10:29.669Z,8.07
2023-05-03T21:12:33.072Z,7.27
2023-05-03T21:14:38.021Z,7.93
2023-05-03T21:16:41.818Z,6.33
2023-05-03T21:18:45.440Z,6.50
2023-05-03T21:20:48.876Z,7.33
2023-05-03T21:22:52.376Z,9.47
2023-05-03T21:24:55.733Z,6.90
2023-05-03T21:26:59.603Z,6.43
2023-05-03T21:29:03.196Z,8.43
2023-05-03T21:31:08.226Z,6.77
2023-05-03T21:33:11.838Z,6.40
2023-05-03T21:35:15.608Z,5.57
2023-05-03T21:37:19.153Z,6.67
2023-05-03T21:39:22.767Z,5.90
2023-05-03T21:41:26.192Z,5.73
2023-05-03T21:43:29.676Z,6.20
2023-05-03T21:45:33.447Z,5.83
2023-05-03T21:47:38.522Z,6.17
2023-05-03T21:49:42.084Z,7.03
2023-05-03T21:51:45.628Z,6.53
2023-05-03T21:53:49.382Z,8.77
2023-05-03T21:55:52.973Z,6.40
2023-05-03T21:57:56.450Z,9.43
2023-05-03T22:00:00.073Z,7.07
2023-05-03T22:02:03.663Z,8.20
2023-05-03T22:04:08.970Z,7.40
2023-05-03T22:06:13.022Z,12.20
2023-05-03T22:08:18.278Z,36.87
2023-05-03T22:10:21.909Z,39.37
2023-05-03T22:12:25.579Z,52.90
2023-05-03T22:14:28.922Z,45.80
2023-05-03T22:16:32.564Z,74.80
2023-05-03T22:18:36.392Z,56.37
2023-05-03T22:20:41.832Z,95.53
2023-05-03T22:22:45.250Z,101.90
2023-05-03T22:24:48.663Z,60.17
2023-05-03T22:26:52.205Z,41.43
2023-05-03T22:28:55.759Z,34.43
2023-05-03T22:30:59.139Z,28.37
2023-05-03T22:33:02.703Z,30.13
2023-05-03T22:35:06.631Z,33.83
2023-05-03T22:37:11.895Z,36.37
2023-05-03T22:39:15.879Z,34.47
2023-05-03T22:41:19.258Z,35.87
2023-05-03T22:43:23.200Z,31.40
2023-05-03T22:45:26.700Z,30.10
2023-05-03T22:47:30.195Z,21.07
2023-05-03T22:49:33.549Z,15.33
2023-05-03T22:51:37.158Z,19.10
2023-05-03T22:53:42.388Z,12.30
2023-05-03T22:55:45.783Z,17.70
2023-05-03T22:57:49.278Z,14.43
2023-05-03T22:59:52.686Z,16.87
2023-05-03T23:01:56.287Z,9.53
2023-05-03T23:04:00.506Z,15.33
2023-05-03T23:06:04.024Z,10.10
2023-05-03T23:08:07.770Z,9.50
2023-05-03T23:10:13.862Z,12.53
2023-05-03T23:12:17.260Z,7.57
2023-05-03T23:14:20.705Z,7.43
2023-05-03T23:16:24.730Z,8.60
2023-05-03T23:18:28.303Z,8.17
2023-05-03T23:20:32.438Z,7.03
2023-05-03T23:22:35.796Z,7.57
2023-05-03T23:24:39.684Z,6.30
2023-05-03T23:26:44.483Z,4.53
2023-05-03T23:28:48.698Z,4.23
2023-05-03T23:30:52.737Z,5.47
2023-05-03T23:32:56.602Z,5.40
2023-05-03T23:35:00.687Z,6.20
2023-05-03T23:37:04.092Z,4.50
2023-05-03T23:39:07.871Z,4.63
2023-05-03T23:41:11.594Z,6.30
2023-05-03T23:43:16.698Z,11.97
2023-05-03T23:45:20.138Z,4.33
2023-05-03T23:47:23.727Z,5.60
2023-05-03T23:49:27.092Z,5.13
2023-05-03T23:51:30.666Z,4.90
2023-05-03T23:53:34.207Z,5.53
2023-05-03T23:55:37.676Z,6.73
2023-05-03T23:57:41.120Z,5.13
2023-05-03T23:59:45.946Z,5.70
